Time;durP1;ratioP1;P1;durP2;ratioP2;P2;SDS_P1;SDS_P2;PMS_P1;PMS_P2;Temp;Humidity;BMP_temperature;BMP_pressure;BME280_temperature;BME280_humidity;BME280_pressure;Samples;Min_cycle;Max_cycle;Signal;HPM_P1;HPM_P2
2022/04/16 00:01:52;;;;;;;;;;;11.80;99.90;;;;;;5075718;28;19928;-88
2022/04/16 00:04:19;;;;;;;;;;;11.60;99.90;;;;;;5075358;28;20341;-87
2022/04/16 00:06:47;;;;;;;;;;;11.60;99.90;;;;;;5075488;28;20002;-88
2022/04/16 00:09:14;;;;;;;;;;;11.60;99.90;;;;;;5075141;28;20134;-84
2022/04/16 00:11:41;;;;;;;;;;;11.60;99.90;;;;;;5075321;28;19924;-87
2022/04/16 00:14:08;;;;;;;;;;;11.60;99.90;;;;;;5075287;28;19924;-87
2022/04/16 00:16:34;;;;;;;;;;;11.50;99.90;;;;;;5075199;28;20332;-88
2022/04/16 00:19:02;;;;;;;;;;;11.50;99.90;;;;;;5075279;28;19928;-87
2022/04/16 00:21:30;;;;;;;;;;;10.70;99.90;;;;;;5075337;28;19925;-89
2022/04/16 00:23:59;;;;;;;;;;;11.40;99.90;;;;;;5075208;28;19925;-88
2022/04/16 00:26:26;;;;;;;;;;;11.30;99.90;;;;;;5074625;28;19928;-88
2022/04/16 00:28:54;;;;;;;;;;;11.10;99.90;;;;;;5074899;28;20366;-87
2022/04/16 00:31:21;;;;;;;;;;;11.00;99.90;;;;;;5074997;28;19929;-87
2022/04/16 00:33:48;;;;;;;;;;;10.90;99.90;;;;;;5074778;28;19931;-88
2022/04/16 00:36:15;;;;;;;;;;;10.80;99.90;;;;;;5074468;28;19964;-87
2022/04/16 00:38:42;;;;;;;;;;;10.80;99.90;;;;;;5074528;28;19978;-86
2022/04/16 00:41:12;;;;;;;;;;;10.70;99.90;;;;;;5077718;28;19932;-89
2022/04/16 00:43:39;;;;;;;;;;;10.70;99.90;;;;;;5078935;28;19963;-89
2022/04/16 00:46:06;;;;;;;;;;;10.60;99.90;;;;;;5078568;28;19977;-88
2022/04/16 00:48:32;;;;;;;;;;;10.60;99.90;;;;;;5078770;28;19925;-88
2022/04/16 00:51:00;;;;;;;;;;;10.00;99.90;;;;;;5078521;28;20268;-88
2022/04/16 00:53:27;;;;;;;;;;;10.50;99.90;;;;;;5078457;28;19925;-88
2022/04/16 00:55:54;;;;;;;;;;;10.50;99.90;;;;;;5078441;28;20256;-88
2022/04/16 00:58:22;;;;;;;;;;;10.40;99.90;;;;;;5078563;28;19924;-88
2022/04/16 01:00:49;;;;;;;;;;;10.40;99.90;;;;;;5078423;28;19978;-88
2022/04/16 01:03:16;;;;;;;;;;;10.40;99.90;;;;;;5078599;28;20336;-89
2022/04/16 01:05:43;;;;;;;;;;;10.30;99.90;;;;;;5077938;28;19924;-89
2022/04/16 01:08:10;;;;;;;;;;;10.30;99.90;;;;;;5078460;28;19924;-88
2022/04/16 01:10:37;;;;;;;;;;;10.30;99.90;;;;;;5077973;28;19924;-88
2022/04/16 01:13:04;;;;;;;;;;;10.30;99.90;;;;;;5078469;28;19970;-88
2022/04/16 01:15:32;;;;;;;;;;;10.30;99.90;;;;;;5078189;28;19959;-88
2022/04/16 01:18:02;;;;;;;;;;;10.50;99.90;;;;;;5078252;28;19925;-88
2022/04/16 01:20:29;;;;;;;;;;;10.30;99.90;;;;;;5078209;28;20325;-88
2022/04/16 01:22:58;;;;;;;;;;;10.60;99.90;;;;;;5077866;28;19925;-88
2022/04/16 01:25:26;;;;;;;;;;;10.50;99.90;;;;;;5078237;28;19940;-88
2022/04/16 01:27:53;;;;;;;;;;;10.60;99.90;;;;;;5077810;28;19950;-87
2022/04/16 01:30:21;;;;;;;;;;;10.40;99.90;;;;;;5077719;28;19925;-86
2022/04/16 01:32:48;;;;;;;;;;;10.30;99.90;;;;;;5077279;28;19928;-88
2022/04/16 01:35:16;;;;;;;;;;;9.90;99.90;;;;;;5077578;28;19931;-88
2022/04/16 01:37:43;;;;;;;;;;;10.10;99.90;;;;;;5082544;28;19947;-83
2022/04/16 01:40:12;;;;;;;;;;;10.10;99.90;;;;;;5089822;28;19932;-84
2022/04/16 01:42:39;;;;;;;;;;;10.00;99.90;;;;;;5089674;28;19924;-84
2022/04/16 01:45:08;;;;;;;;;;;10.00;99.90;;;;;;5088031;28;19925;-87
2022/04/16 01:47:36;;;;;;;;;;;9.90;99.90;;;;;;5080336;28;19925;-87
2022/04/16 01:50:03;;;;;;;;;;;9.90;99.90;;;;;;5078132;28;19928;-88
2022/04/16 01:52:30;;;;;;;;;;;9.80;99.90;;;;;;5077003;28;19944;-87
2022/04/16 01:54:57;;;;;;;;;;;9.80;99.90;;;;;;5077721;28;19952;-89
2022/04/16 01:57:25;;;;;;;;;;;9.70;99.90;;;;;;5077397;28;20083;-88
2022/04/16 01:59:52;;;;;;;;;;;9.70;99.90;;;;;;5077196;28;19986;-87
2022/04/16 02:02:19;;;;;;;;;;;9.80;99.90;;;;;;5077192;28;20374;-89
2022/04/16 02:04:46;;;;;;;;;;;9.80;99.90;;;;;;5077011;28;19950;-90
2022/04/16 02:07:13;;;;;;;;;;;9.70;99.90;;;;;;5077192;28;19970;-88
2022/04/16 02:09:40;;;;;;;;;;;9.70;99.90;;;;;;5077262;28;20324;-87
2022/04/16 02:12:07;;;;;;;;;;;9.80;99.90;;;;;;5076476;28;19971;-87
2022/04/16 02:14:38;;;;;;;;;;;9.90;99.90;;;;;;5076599;28;20271;-88
2022/04/16 02:17:05;;;;;;;;;;;9.90;99.90;;;;;;5076917;28;19924;-88
2022/04/16 02:19:34;;;;;;;;;;;9.90;99.90;;;;;;5076643;28;19982;-90
2022/04/16 02:22:01;;;;;;;;;;;9.90;99.90;;;;;;5076597;28;19946;-88
2022/04/16 02:24:27;;;;;;;;;;;9.90;99.90;;;;;;5077114;28;19978;-88
2022/04/16 02:26:55;;;;;;;;;;;10.00;99.90;;;;;;5076791;28;19924;-88
2022/04/16 02:29:22;;;;;;;;;;;9.90;99.90;;;;;;5076816;28;19956;-88
2022/04/16 02:31:50;;;;;;;;;;;9.80;99.90;;;;;;5076463;28;19928;-89
2022/04/16 02:34:19;;;;;;;;;;;8.00;99.90;;;;;;5076847;28;19932;-88
2022/04/16 02:36:45;;;;;;;;;;;9.60;99.90;;;;;;5076895;28;19924;-89
2022/04/16 02:39:12;;;;;;;;;;;9.60;99.90;;;;;;5076289;28;20444;-88
2022/04/16 02:41:39;;;;;;;;;;;9.50;99.90;;;;;;5076155;28;19930;-89
2022/04/16 02:44:06;;;;;;;;;;;9.50;99.90;;;;;;5076196;28;19970;-88
2022/04/16 02:49:19;;;;;;;;;;;9.30;99.90;;;;;;5076097;28;20074;-90
2022/04/16 02:51:46;;;;;;;;;;;9.40;99.90;;;;;;5076458;28;19959;-89
2022/04/16 02:54:12;;;;;;;;;;;8.90;99.90;;;;;;5075938;28;19932;-88
2022/04/16 02:56:39;;;;;;;;;;;9.40;99.90;;;;;;5075288;28;19928;-88
2022/04/16 02:59:06;;;;;;;;;;;9.40;99.90;;;;;;5075496;28;19924;-88
2022/04/16 03:01:33;;;;;;;;;;;9.30;99.90;;;;;;5075461;28;19986;-88
2022/04/16 03:03:59;;;;;;;;;;;9.30;99.90;;;;;;5074180;28;20432;-88
2022/04/16 03:06:27;;;;;;;;;;;9.30;99.90;;;;;;5075485;28;19974;-89
2022/04/16 03:08:54;;;;;;;;;;;9.30;99.90;;;;;;5075895;28;19924;-89
2022/04/16 03:11:21;;;;;;;;;;;9.30;99.90;;;;;;5076187;28;20425;-88
2022/04/16 03:13:48;;;;;;;;;;;9.30;99.90;;;;;;5076013;28;19977;-89
2022/04/16 03:18:59;;;;;;;;;;;9.50;99.90;;;;;;5075735;28;19930;-89
2022/04/16 03:21:25;;;;;;;;;;;9.60;99.90;;;;;;5075832;28;19977;-88
2022/04/16 03:23:53;;;;;;;;;;;9.60;99.90;;;;;;5075578;28;19970;-89
2022/04/16 03:26:20;;;;;;;;;;;9.60;99.90;;;;;;5075964;28;19928;-88
2022/04/16 03:28:47;;;;;;;;;;;9.60;99.90;;;;;;5075962;28;19928;-89
2022/04/16 03:31:13;;;;;;;;;;;9.70;99.90;;;;;;5075590;28;20327;-90
2022/04/16 03:33:40;;;;;;;;;;;9.70;99.90;;;;;;5080058;28;19925;-84
2022/04/16 03:36:07;;;;;;;;;;;9.80;99.90;;;;;;5087800;28;19929;-84
2022/04/16 03:38:34;;;;;;;;;;;9.80;99.90;;;;;;5087767;28;19925;-83
2022/04/16 03:41:02;;;;;;;;;;;9.90;99.90;;;;;;5086463;28;20404;-85
2022/04/16 03:43:29;;;;;;;;;;;9.70;99.90;;;;;;5077481;28;19933;-88
2022/04/16 03:45:56;;;;;;;;;;;10.10;99.90;;;;;;5075989;28;19924;-87
2022/04/16 03:48:22;;;;;;;;;;;10.10;99.90;;;;;;5075732;28;19924;-88
2022/04/16 03:50:49;;;;;;;;;;;9.30;99.90;;;;;;5075557;28;19928;-88
2022/04/16 03:53:16;;;;;;;;;;;10.00;99.90;;;;;;5075184;28;19946;-88
2022/04/16 04:01:13;;;;;;;;;;;10.00;99.90;;;;;;5075318;28;19977;-89
2022/04/16 04:03:39;;;;;;;;;;;10.20;99.90;;;;;;5075514;28;19929;-88
2022/04/16 04:06:07;;;;;;;;;;;10.10;99.90;;;;;;5075395;28;19925;-89
2022/04/16 04:08:34;;;;;;;;;;;10.00;99.90;;;;;;5075407;28;19931;-88
2022/04/16 04:11:01;;;;;;;;;;;9.70;99.90;;;;;;5075622;28;20417;-88
2022/04/16 04:13:31;;;;;;;;;;;10.00;99.90;;;;;;5075492;28;19924;-89
2022/04/16 04:15:57;;;;;;;;;;;10.00;99.90;;;;;;5078605;28;19978;-89
2022/04/16 04:18:26;;;;;;;;;;;10.10;99.90;;;;;;5078962;28;20298;-88
2022/04/16 04:20:53;;;;;;;;;;;10.10;99.90;;;;;;5079305;28;19924;-87
2022/04/16 04:23:20;;;;;;;;;;;10.10;99.90;;;;;;5079231;28;19928;-88
2022/04/16 04:25:47;;;;;;;;;;;9.80;99.90;;;;;;5079225;28;19932;-88
2022/04/16 04:28:14;;;;;;;;;;;10.10;99.90;;;;;;5078966;28;20378;-87
2022/04/16 04:30:42;;;;;;;;;;;10.00;99.90;;;;;;5078503;28;19924;-87
2022/04/16 04:33:08;;;;;;;;;;;10.20;99.90;;;;;;5078786;28;19925;-88
2022/04/16 04:35:35;;;;;;;;;;;10.10;99.90;;;;;;5078823;28;20334;-88
2022/04/16 04:38:02;;;;;;;;;;;10.10;99.90;;;;;;5078851;28;19963;-88
2022/04/16 04:40:29;;;;;;;;;;;9.50;99.90;;;;;;5078840;28;19925;-87
2022/04/16 04:42:56;;;;;;;;;;;10.10;99.90;;;;;;5078422;28;20016;-88
2022/04/16 04:45:23;;;;;;;;;;;10.20;99.90;;;;;;5079002;28;20317;-88
2022/04/16 04:47:51;;;;;;;;;;;10.20;99.90;;;;;;5078354;28;20353;-90
2022/04/16 04:50:18;;;;;;;;;;;10.20;99.90;;;;;;5078602;28;19924;-88
2022/04/16 04:52:44;;;;;;;;;;;10.20;99.90;;;;;;5078862;28;19924;-88
2022/04/16 04:55:12;;;;;;;;;;;10.00;99.90;;;;;;5078500;28;20386;-89
2022/04/16 04:57:38;;;;;;;;;;;10.20;99.90;;;;;;5078075;28;19994;-88
2022/04/16 05:00:06;;;;;;;;;;;10.20;99.90;;;;;;5078773;28;20002;-86
2022/04/16 05:02:42;;;;;;;;;;;10.20;99.90;;;;;;5078545;28;19924;-89
2022/04/16 05:05:11;;;;;;;;;;;10.20;99.90;;;;;;5078546;28;19924;-88
2022/04/16 05:07:37;;;;;;;;;;;10.10;99.90;;;;;;5078387;28;19924;-87
2022/04/16 05:10:05;;;;;;;;;;;10.20;99.90;;;;;;5078550;28;19924;-88
2022/04/16 05:12:32;;;;;;;;;;;10.30;99.90;;;;;;5078055;28;19928;-85
2022/04/16 05:14:58;;;;;;;;;;;10.20;99.90;;;;;;5078151;28;19978;-89
2022/04/16 05:17:25;;;;;;;;;;;10.20;99.90;;;;;;5077896;28;19924;-88
2022/04/16 05:19:52;;;;;;;;;;;10.20;99.90;;;;;;5078302;28;19928;-89
2022/04/16 05:22:20;;;;;;;;;;;9.40;99.90;;;;;;5077923;28;19924;-88
2022/04/16 05:24:47;;;;;;;;;;;10.20;99.90;;;;;;5077329;28;19928;-89
2022/04/16 05:27:15;;;;;;;;;;;10.20;99.90;;;;;;5076266;28;19925;-87
2022/04/16 05:30:05;;;;;;;;;;;10.30;99.90;;;;;;5081757;28;19960;-84
2022/04/16 05:32:36;;;;;;;;;;;10.40;99.90;;;;;;5088905;28;19931;-83
2022/04/16 05:35:03;;;;;;;;;;;10.50;99.90;;;;;;5089557;28;19955;-84
2022/04/16 05:37:31;;;;;;;;;;;10.60;99.90;;;;;;5086743;28;20374;-87
2022/04/16 05:39:58;;;;;;;;;;;10.60;99.90;;;;;;5080299;28;19924;-87
2022/04/16 05:42:25;;;;;;;;;;;10.20;99.90;;;;;;5077807;28;19925;-88
2022/04/16 05:44:51;;;;;;;;;;;10.80;99.90;;;;;;5077234;28;19982;-87
2022/04/16 05:47:18;;;;;;;;;;;10.90;99.90;;;;;;5077327;28;20314;-88
2022/04/16 05:49:45;;;;;;;;;;;11.00;99.90;;;;;;5077358;28;19947;-88
2022/04/16 05:52:12;;;;;;;;;;;11.00;99.90;;;;;;5077471;28;19924;-87
2022/04/16 05:54:40;;;;;;;;;;;11.00;99.90;;;;;;5077099;28;19924;-87
2022/04/16 05:57:07;;;;;;;;;;;11.10;99.90;;;;;;5077066;28;19924;-87
2022/04/16 05:59:33;;;;;;;;;;;11.00;99.90;;;;;;5076823;28;19925;-87
2022/04/16 06:02:01;;;;;;;;;;;11.00;99.90;;;;;;5077244;28;19971;-87
2022/04/16 06:04:27;;;;;;;;;;;11.10;99.90;;;;;;5077092;28;19931;-88
2022/04/16 06:06:54;;;;;;;;;;;11.10;99.90;;;;;;5076987;28;19924;-88
2022/04/16 06:09:21;;;;;;;;;;;11.30;99.90;;;;;;5077304;28;20349;-88
2022/04/16 06:11:51;;;;;;;;;;;11.10;99.90;;;;;;5077064;28;20007;-88
2022/04/16 06:14:18;;;;;;;;;;;11.30;99.90;;;;;;5077606;28;19925;-87
2022/04/16 06:16:45;;;;;;;;;;;11.30;99.90;;;;;;5076941;28;19925;-89
2022/04/16 06:19:12;;;;;;;;;;;11.20;99.90;;;;;;5076560;28;20366;-89
2022/04/16 06:21:38;;;;;;;;;;;11.40;99.90;;;;;;5076509;28;19924;-88
2022/04/16 06:24:05;;;;;;;;;;;11.50;99.90;;;;;;5076435;28;20394;-87
2022/04/16 06:26:32;;;;;;;;;;;11.50;99.90;;;;;;5077016;28;19982;-88
2022/04/16 06:29:00;;;;;;;;;;;11.60;99.90;;;;;;5076821;28;19924;-89
2022/04/16 06:31:27;;;;;;;;;;;11.70;99.90;;;;;;5076717;28;20275;-88
2022/04/16 06:33:54;;;;;;;;;;;11.60;99.90;;;;;;5076875;28;19929;-89
2022/04/16 06:36:21;;;;;;;;;;;11.90;99.90;;;;;;5076264;28;20309;-88
2022/04/16 06:38:47;;;;;;;;;;;11.90;99.90;;;;;;5076298;28;19924;-89
2022/04/16 06:41:14;;;;;;;;;;;12.00;99.90;;;;;;5077174;28;19931;-88
2022/04/16 06:43:41;;;;;;;;;;;12.20;99.90;;;;;;5076418;28;19928;-88
2022/04/16 06:46:09;;;;;;;;;;;12.30;99.90;;;;;;5076205;28;19975;-89
2022/04/16 06:48:36;;;;;;;;;;;12.40;99.90;;;;;;5076754;28;20299;-88
2022/04/16 06:51:02;;;;;;;;;;;12.40;99.90;;;;;;5076039;28;19925;-88
2022/04/16 06:53:29;;;;;;;;;;;12.50;99.90;;;;;;5076685;28;19948;-88
2022/04/16 06:56:00;;;;;;;;;;;12.70;99.90;;;;;;5076629;28;19970;-89
2022/04/16 06:58:27;;;;;;;;;;;12.70;99.90;;;;;;5076672;28;20386;-88
2022/04/16 07:00:54;;;;;;;;;;;13.00;99.90;;;;;;5076382;28;20331;-89
2022/04/16 07:03:22;;;;;;;;;;;13.10;99.90;;;;;;5076072;28;19924;-89
2022/04/16 07:05:49;;;;;;;;;;;13.00;99.90;;;;;;5076505;28;19986;-87
2022/04/16 07:08:16;;;;;;;;;;;13.10;99.90;;;;;;5076843;28;19950;-88
2022/04/16 07:10:42;;;;;;;;;;;13.20;99.90;;;;;;5075803;28;20432;-89
2022/04/16 07:13:09;;;;;;;;;;;13.20;99.90;;;;;;5077353;28;19955;-90
2022/04/16 07:15:37;;;;;;;;;;;13.30;99.90;;;;;;5075873;28;19925;-89
2022/04/16 07:18:04;;;;;;;;;;;13.40;99.90;;;;;;5076232;28;19979;-86
2022/04/16 07:20:32;;;;;;;;;;;13.30;99.90;;;;;;5075385;28;19935;-89
2022/04/16 07:22:59;;;;;;;;;;;13.40;99.90;;;;;;5076094;28;19955;-91
2022/04/16 07:25:26;;;;;;;;;;;13.50;99.90;;;;;;5078656;28;19925;-85
2022/04/16 07:27:53;;;;;;;;;;;13.50;99.90;;;;;;5087146;28;19925;-84
2022/04/16 07:30:19;;;;;;;;;;;13.40;99.90;;;;;;5087684;28;19924;-85
2022/04/16 07:32:46;;;;;;;;;;;13.10;99.90;;;;;;5087110;28;19951;-88
2022/04/16 07:35:13;;;;;;;;;;;13.40;99.90;;;;;;5078910;28;19924;-90
2022/04/16 07:37:41;;;;;;;;;;;13.50;99.90;;;;;;5076361;28;19932;-89
2022/04/16 07:40:09;;;;;;;;;;;13.60;99.90;;;;;;5077650;28;19924;-89
2022/04/16 07:42:35;;;;;;;;;;;13.60;99.90;;;;;;5075758;28;20021;-88
2022/04/16 07:45:02;;;;;;;;;;;13.70;99.90;;;;;;5075537;28;20240;-89
2022/04/16 07:47:29;;;;;;;;;;;13.50;99.90;;;;;;5076200;28;19994;-88
2022/04/16 07:49:56;;;;;;;;;;;13.90;99.90;;;;;;5074469;28;20286;-90
2022/04/16 07:52:25;;;;;;;;;;;14.00;99.90;;;;;;5077680;28;19985;-89
2022/04/16 07:54:53;;;;;;;;;;;14.00;99.90;;;;;;5075089;28;20418;-88
2022/04/16 07:57:20;;;;;;;;;;;14.30;99.90;;;;;;5078329;28;19924;-85
2022/04/16 07:59:47;;;;;;;;;;;14.50;99.90;;;;;;5075569;28;19925;-89
2022/04/16 08:02:13;;;;;;;;;;;14.70;99.90;;;;;;5075212;28;19924;-89
2022/04/16 08:04:41;;;;;;;;;;;14.70;99.90;;;;;;5075130;28;19925;-90
2022/04/16 08:07:08;;;;;;;;;;;14.70;99.90;;;;;;5075806;28;20011;-88
2022/04/16 08:09:34;;;;;;;;;;;14.60;99.90;;;;;;5076091;28;19947;-89
2022/04/16 08:12:03;;;;;;;;;;;14.70;99.90;;;;;;5075293;28;20448;-89
2022/04/16 08:14:30;;;;;;;;;;;14.70;99.90;;;;;;5076027;28;19978;-89
2022/04/16 08:16:57;;;;;;;;;;;14.90;99.90;;;;;;5076396;28;19979;-89
2022/04/16 08:19:24;;;;;;;;;;;14.80;99.90;;;;;;5075603;28;20436;-89
2022/04/16 08:21:53;;;;;;;;;;;14.90;99.90;;;;;;5075107;28;20251;-89
2022/04/16 08:24:38;;;;;;;;;;;17.30;99.90;;;;;;5075524;28;19932;-88
2022/04/16 08:27:07;;;;;;;;;;;15.30;99.90;;;;;;5075582;28;19928;-89
2022/04/16 08:29:34;;;;;;;;;;;14.80;99.90;;;;;;5075281;28;19925;-89
2022/04/16 08:32:01;;;;;;;;;;;15.30;99.90;;;;;;5075481;28;19925;-89
2022/04/16 08:34:28;;;;;;;;;;;15.40;99.90;;;;;;5076309;28;19931;-88
2022/04/16 08:36:54;;;;;;;;;;;15.40;99.90;;;;;;5076041;28;19978;-88
2022/04/16 08:39:22;;;;;;;;;;;15.40;99.90;;;;;;5075221;28;19955;-89
2022/04/16 08:41:50;;;;;;;;;;;15.40;99.90;;;;;;5075418;28;20358;-88
2022/04/16 08:44:19;;;;;;;;;;;15.50;99.90;;;;;;5076100;28;19925;-89
2022/04/16 08:46:46;;;;;;;;;;;15.50;99.90;;;;;;5075943;28;19931;-87
2022/04/16 08:49:14;;;;;;;;;;;15.60;99.90;;;;;;5076439;28;19982;-89
2022/04/16 08:51:41;;;;;;;;;;;15.80;99.90;;;;;;5076594;28;20341;-89
2022/04/16 08:54:08;;;;;;;;;;;15.90;99.90;;;;;;5075570;28;19925;-89
2022/04/16 08:56:34;;;;;;;;;;;16.10;99.90;;;;;;5075442;28;19924;-90
2022/04/16 08:59:02;;;;;;;;;;;16.50;99.90;;;;;;5075206;28;19955;-86
2022/04/16 09:01:30;;;;;;;;;;;16.40;99.90;;;;;;5075800;28;20379;-88
2022/04/16 09:03:58;;;;;;;;;;;16.50;99.90;;;;;;5078883;28;19929;-88
2022/04/16 09:06:25;;;;;;;;;;;16.60;99.90;;;;;;5078946;28;20302;-88
2022/04/16 09:08:52;;;;;;;;;;;16.50;99.90;;;;;;5079438;28;19986;-88
2022/04/16 09:11:21;;;;;;;;;;;16.40;99.90;;;;;;5078483;28;19931;-90
2022/04/16 09:13:52;;;;;;;;;;;16.30;99.90;;;;;;5078698;28;19924;-90
2022/04/16 09:16:19;;;;;;;;;;;16.40;99.90;;;;;;5079404;28;19932;-89
2022/04/16 09:18:50;;;;;;;;;;;16.50;99.90;;;;;;5078374;28;19925;-89
2022/04/16 09:21:16;;;;;;;;;;;15.30;99.90;;;;;;5082455;28;19993;-84
2022/04/16 09:23:48;;;;;;;;;;;16.70;99.90;;;;;;5091967;28;19950;-86
2022/04/16 09:26:25;;;;;;;;;;;16.90;99.90;;;;;;5092875;28;19960;-84
2022/04/16 09:28:52;;;;;;;;;;;17.10;99.90;;;;;;5090968;28;19980;-88
2022/04/16 09:31:19;;;;;;;;;;;17.30;99.90;;;;;;5082454;28;19924;-89
2022/04/16 09:33:46;;;;;;;;;;;16.70;99.90;;;;;;5078774;28;19932;-88
2022/04/16 09:36:23;;;;;;;;;;;16.90;99.90;;;;;;5079714;28;19924;-91
2022/04/16 09:38:50;;;;;;;;;;;16.80;99.90;;;;;;5078886;28;19924;-89
2022/04/16 09:41:17;;;;;;;;;;;16.80;99.90;;;;;;5078851;28;19924;-89
2022/04/16 09:43:44;;;;;;;;;;;17.00;99.90;;;;;;5078298;28;19955;-89
2022/04/16 09:46:11;;;;;;;;;;;17.00;99.90;;;;;;5078288;28;19977;-86
2022/04/16 09:48:38;;;;;;;;;;;17.50;99.90;;;;;;5078830;28;20481;-88
2022/04/16 09:51:05;;;;;;;;;;;17.20;99.90;;;;;;5077616;28;19928;-89
2022/04/16 09:53:36;;;;;;;;;;;17.20;99.90;;;;;;5079242;28;19928;-89
2022/04/16 09:56:03;;;;;;;;;;;17.30;99.90;;;;;;5079588;28;19925;-88
2022/04/16 09:58:33;;;;;;;;;;;17.40;99.90;;;;;;5078517;28;19990;-89
2022/04/16 10:01:01;;;;;;;;;;;17.70;99.90;;;;;;5078679;28;19928;-92
2022/04/16 10:03:29;;;;;;;;;;;17.80;99.90;;;;;;5077958;28;19924;-90
2022/04/16 10:05:57;;;;;;;;;;;17.90;99.90;;;;;;5080071;28;19935;-88
2022/04/16 10:08:24;;;;;;;;;;;18.00;99.90;;;;;;5078790;28;20431;-89
2022/04/16 10:10:54;;;;;;;;;;;18.00;99.90;;;;;;5082038;28;20298;-89
2022/04/16 10:13:22;;;;;;;;;;;17.90;99.90;;;;;;5078674;28;19924;-89
2022/04/16 10:15:56;;;;;;;;;;;17.70;99.90;;;;;;5076997;28;19929;-90
2022/04/16 10:18:23;;;;;;;;;;;17.60;99.90;;;;;;5078194;28;20422;-88
2022/04/16 10:20:50;;;;;;;;;;;17.60;99.90;;;;;;5081076;28;19955;-89
2022/04/16 10:23:25;;;;;;;;;;;17.50;99.90;;;;;;5077650;28;19925;-89
2022/04/16 10:26:00;;;;;;;;;;;17.80;99.90;;;;;;5076386;28;19924;-89
2022/04/16 10:28:33;;;;;;;;;;;17.40;99.90;;;;;;5076751;28;19924;-89
2022/04/16 10:31:00;;;;;;;;;;;18.00;99.90;;;;;;5076923;28;19970;-88
2022/04/16 10:33:28;;;;;;;;;;;18.00;99.90;;;;;;5079276;28;19924;-87
2022/04/16 10:35:56;;;;;;;;;;;18.10;99.90;;;;;;5080097;28;19970;-89
2022/04/16 10:38:26;;;;;;;;;;;18.00;99.90;;;;;;5078213;28;20379;-89
2022/04/16 10:40:57;;;;;;;;;;;17.90;99.90;;;;;;5079319;28;19970;-89
2022/04/16 10:43:26;;;;;;;;;;;18.00;99.90;;;;;;5077895;28;19986;-89
2022/04/16 10:45:56;;;;;;;;;;;17.90;99.90;;;;;;5077909;28;19925;-89
2022/04/16 10:48:23;;;;;;;;;;;18.50;99.90;;;;;;5076419;28;19971;-89
2022/04/16 10:50:52;;;;;;;;;;;18.40;99.90;;;;;;5076345;28;19924;-89
2022/04/16 10:53:26;;;;;;;;;;;18.60;99.90;;;;;;5083597;28;20289;-88
2022/04/16 10:55:53;;;;;;;;;;;18.70;99.90;;;;;;5076175;28;19978;-89
2022/04/16 10:58:30;;;;;;;;;;;18.10;99.90;;;;;;5076575;28;19978;-89
2022/04/16 11:01:07;;;;;;;;;;;19.10;99.90;;;;;;5076996;28;20007;-90
2022/04/16 11:03:34;;;;;;;;;;;19.00;99.90;;;;;;5077217;28;19974;-89
2022/04/16 11:06:01;;;;;;;;;;;18.90;99.90;;;;;;5076961;28;20015;-89
2022/04/16 11:08:29;;;;;;;;;;;18.90;99.90;;;;;;5076346;28;19924;-89
2022/04/16 11:10:57;;;;;;;;;;;19.10;99.90;;;;;;5076173;28;19928;-88
2022/04/16 11:13:23;;;;;;;;;;;18.90;99.90;;;;;;5077876;28;20018;-88
2022/04/16 11:15:52;;;;;;;;;;;19.00;99.90;;;;;;5079225;28;19924;-89
2022/04/16 11:18:19;;;;;;;;;;;19.10;99.90;;;;;;5086327;28;19924;-85
2022/04/16 11:20:54;;;;;;;;;;;19.10;99.90;;;;;;5087936;28;19963;-86
2022/04/16 11:23:24;;;;;;;;;;;19.30;99.90;;;;;;5087259;28;20379;-85
2022/04/16 11:34:21;;;;;;;;;;;19.70;99.90;;;;;;5076466;28;19932;-88
2022/04/16 11:36:51;;;;;;;;;;;19.80;99.90;;;;;;5076710;28;19924;-87
2022/04/16 11:39:18;;;;;;;;;;;19.90;99.90;;;;;;5076877;28;20341;-88
2022/04/16 11:41:49;;;;;;;;;;;19.80;99.90;;;;;;5077015;28;20374;-89
2022/04/16 11:44:16;;;;;;;;;;;19.60;99.90;;;;;;5076320;28;19959;-89
2022/04/16 11:46:44;;;;;;;;;;;19.50;99.90;;;;;;5077631;28;20290;-88
2022/04/16 11:49:11;;;;;;;;;;;19.70;99.90;;;;;;5076504;28;19925;-89
2022/04/16 11:51:39;;;;;;;;;;;19.70;99.90;;;;;;5075537;28;20028;-89
2022/04/16 11:54:06;;;;;;;;;;;19.70;99.90;;;;;;5077696;28;20364;-89
2022/04/16 11:56:33;;;;;;;;;;;19.80;99.90;;;;;;5075493;28;19931;-89
2022/04/16 11:59:00;;;;;;;;;;;19.90;99.90;;;;;;5076237;28;19970;-88
2022/04/16 12:01:27;;;;;;;;;;;19.80;99.90;;;;;;5076696;28;19947;-87
2022/04/16 12:03:57;;;;;;;;;;;19.80;99.90;;;;;;5076115;28;19924;-88
2022/04/16 12:06:24;;;;;;;;;;;19.90;99.90;;;;;;5076069;28;19971;-89
2022/04/16 12:08:51;;;;;;;;;;;20.10;99.90;;;;;;5076590;28;19986;-88
2022/04/16 12:11:19;;;;;;;;;;;20.10;99.90;;;;;;5075722;28;19924;-89
2022/04/16 12:13:45;;;;;;;;;;;20.20;99.90;;;;;;5076179;28;20272;-89
2022/04/16 12:16:13;;;;;;;;;;;20.30;99.90;;;;;;5078464;28;19928;-85
2022/04/16 12:18:41;;;;;;;;;;;20.60;99.90;;;;;;5078327;28;19992;-89
2022/04/16 12:21:10;;;;;;;;;;;20.80;99.90;;;;;;5077743;28;19924;-88
2022/04/16 12:23:38;;;;;;;;;;;20.60;99.90;;;;;;5077377;28;19924;-89
2022/04/16 12:26:06;;;;;;;;;;;20.50;99.90;;;;;;5076687;28;19924;-89
2022/04/16 12:28:33;;;;;;;;;;;20.70;99.90;;;;;;5076549;28;19978;-88
2022/04/16 12:31:00;;;;;;;;;;;20.70;99.90;;;;;;5075789;28;19928;-89
2022/04/16 12:33:27;;;;;;;;;;;20.70;99.90;;;;;;5075423;28;19928;-86
2022/04/16 12:35:55;;;;;;;;;;;21.10;99.70;;;;;;5076746;28;19925;-90
2022/04/16 12:38:25;;;;;;;;;;;21.40;99.70;;;;;;5080553;28;19971;-88
2022/04/16 12:40:51;;;;;;;;;;;21.40;99.40;;;;;;5079925;28;20367;-89
2022/04/16 12:43:18;;;;;;;;;;;21.30;99.80;;;;;;5080070;28;19925;-87
2022/04/16 12:45:45;;;;;;;;;;;21.20;99.80;;;;;;5079322;28;19951;-88
2022/04/16 12:48:12;;;;;;;;;;;21.10;99.30;;;;;;5083814;28;19928;-89
2022/04/16 12:50:41;;;;;;;;;;;21.00;99.40;;;;;;5079409;28;20378;-88
2022/04/16 12:53:08;;;;;;;;;;;21.10;99.60;;;;;;5080089;28;19925;-87
2022/04/16 12:55:36;;;;;;;;;;;20.90;99.40;;;;;;5079241;28;19978;-87
2022/04/16 12:58:03;;;;;;;;;;;20.90;99.60;;;;;;5079772;28;19924;-87
2022/04/16 13:00:31;;;;;;;;;;;20.90;99.60;;;;;;5078365;28;19924;-88
2022/04/16 13:02:59;;;;;;;;;;;20.90;99.00;;;;;;5079734;28;20019;-88
2022/04/16 13:05:29;;;;;;;;;;;20.80;99.90;;;;;;5079137;28;19929;-89
2022/04/16 13:07:58;;;;;;;;;;;20.50;99.50;;;;;;5078840;28;20226;-88
2022/04/16 13:10:25;;;;;;;;;;;20.90;99.90;;;;;;5081371;28;19973;-89
2022/04/16 13:12:53;;;;;;;;;;;20.90;99.60;;;;;;5081501;28;19928;-89
2022/04/16 13:15:20;;;;;;;;;;;21.00;99.40;;;;;;5087526;28;19931;-85
2022/04/16 13:17:46;;;;;;;;;;;21.10;99.50;;;;;;5089586;28;19964;-84
2022/04/16 13:20:13;;;;;;;;;;;21.10;99.40;;;;;;5089881;28;19986;-84
2022/04/16 13:22:40;;;;;;;;;;;21.10;99.80;;;;;;5086077;28;19987;-86
2022/04/16 13:25:07;;;;;;;;;;;21.30;99.60;;;;;;5081109;28;20004;-89
2022/04/16 13:27:35;;;;;;;;;;;21.50;99.30;;;;;;5079042;28;19942;-89
2022/04/16 13:30:04;;;;;;;;;;;21.70;98.60;;;;;;5078548;28;19978;-89
2022/04/16 13:32:31;;;;;;;;;;;21.50;98.60;;;;;;5079773;28;20341;-90
2022/04/16 13:34:58;;;;;;;;;;;21.40;98.90;;;;;;5078519;28;19951;-89
2022/04/16 13:37:24;;;;;;;;;;;21.40;99.40;;;;;;5079577;28;19970;-88
2022/04/16 13:42:36;;;;;;;;;;;21.50;98.80;;;;;;5079610;28;19931;-87
2022/04/16 13:45:04;;;;;;;;;;;21.60;98.70;;;;;;5079807;28;19924;-86
2022/04/16 13:47:31;;;;;;;;;;;21.70;98.30;;;;;;5076926;28;19978;-89
2022/04/16 13:49:58;;;;;;;;;;;21.50;98.70;;;;;;5078658;28;19929;-87
2022/04/16 13:52:25;;;;;;;;;;;21.70;98.80;;;;;;5080453;28;19946;-88
2022/04/16 13:54:54;;;;;;;;;;;21.90;98.70;;;;;;5078750;28;20026;-88
2022/04/16 13:57:21;;;;;;;;;;;21.80;98.60;;;;;;5080363;28;19932;-88
2022/04/16 13:59:48;;;;;;;;;;;22.10;97.60;;;;;;5079792;28;19928;-89
2022/04/16 14:02:16;;;;;;;;;;;22.00;97.60;;;;;;5078626;28;19924;-88
2022/04/16 14:07:27;;;;;;;;;;;21.70;97.30;;;;;;5077966;28;20287;-87
2022/04/16 14:09:53;;;;;;;;;;;21.90;97.60;;;;;;5078044;28;19997;-89
2022/04/16 14:12:20;;;;;;;;;;;21.70;97.60;;;;;;5077276;28;19924;-88
2022/04/16 14:14:47;;;;;;;;;;;21.70;97.80;;;;;;5079793;28;19925;-89
2022/04/16 14:17:14;;;;;;;;;;;21.80;97.80;;;;;;5078369;28;19924;-88
2022/04/16 14:19:42;;;;;;;;;;;22.10;97.80;;;;;;5078782;28;19928;-89
2022/04/16 14:22:09;;;;;;;;;;;22.20;97.10;;;;;;5077623;28;20018;-88
2022/04/16 14:24:36;;;;;;;;;;;22.20;97.60;;;;;;5079244;28;19964;-87
2022/04/16 14:27:05;;;;;;;;;;;22.30;96.80;;;;;;5077142;28;19946;-88
2022/04/16 14:29:32;;;;;;;;;;;22.30;96.80;;;;;;5078031;28;19928;-89
2022/04/16 14:31:59;;;;;;;;;;;22.40;97.10;;;;;;5076544;28;19930;-88
2022/04/16 14:34:26;;;;;;;;;;;22.40;96.90;;;;;;5076831;28;20345;-90
2022/04/16 14:36:56;;;;;;;;;;;22.50;97.10;;;;;;5077640;28;19978;-87
2022/04/16 14:39:23;;;;;;;;;;;22.50;96.30;;;;;;5077513;28;19924;-89
2022/04/16 14:41:49;;;;;;;;;;;22.60;96.00;;;;;;5077466;28;19928;-89
2022/04/16 14:44:17;;;;;;;;;;;22.40;96.30;;;;;;5077149;28;19954;-88
2022/04/16 14:46:43;;;;;;;;;;;22.10;96.70;;;;;;5077796;28;20024;-89